Accueil
METAR-TAF:

METAR-TAF

Aéroports :

Aéroport international de Bahreïn

Bahreïn, Bahreïn

latitude: 26-16N, longitude: 050-39E, altitude: 2 m

Observation

Le bulletin a été fait il y a 17 minutes, à 11:00 UTC
Vent 13 kt de nord/nord-ouest
Température 39°C
Humidité 36%
Pression 999 hPa
Visibilité 10 km ou plus
pas de nuages en-dessous de 1500 mètres et pas de cumulonimbus.

METAR: OBBI 201100Z 33013KT CAVOK 39/21 Q0999 NOSIG

Heure: 14:17 (11:17 UTC)

Prévision

Le bulletin a été fait il y a 6 heures et 17 minutes, à 05:00 UTC
Prévision valable du 20 à 06 UTC au 21 à 12 UTC
Vent 12 kt de nord/nord-ouest
Visibilité 10 km ou plus
pas de nuages en-dessous de 1500 mètres et pas de cumulonimbus.
Evoluant progressivement
du 20 à 16 UTC au 20 à 18 UTC
Vent 5 kt de ouest

TAF: OBBI 200500Z 2006/2112 33012KT CAVOK BECMG 2016/2018 27005KT

Observations et prévisions météorologiques de plus de 4000 aéroports (messages METAR et TAF).

Les stations disponibles sont représentées par des disques jaunes et rouges sur la carte.

Passer la souris dessus pour voir le nom de la station.

Cliquer dessus pour voir les observations et prévisions météorologiques.

Pour changer de carte: cliquez sur les boutons verts avec une croix noire pour zoomer, sur le bouton vert avec un tiret pour effectuer un zoom arrière, ou sur les flèches vertes pour les cartes adjacentes.


METAR-TAF: